sensor_id;sensor_type;location;lat;lon;timestamp;pressure;altitude;pressure_sealevel;temperature;humidity
30935;BME280;51033;42.648;23.292;2023-05-20T00:01:59;94179.78;;;13.78;57.83
30935;BME280;51033;42.648;23.292;2023-05-20T00:04:24;94179.94;;;13.81;57.79
30935;BME280;51033;42.648;23.292;2023-05-20T00:06:50;94183.56;;;13.77;57.98
30935;BME280;51033;42.648;23.292;2023-05-20T00:09:15;94163.56;;;13.45;58.37
30935;BME280;51033;42.648;23.292;2023-05-20T00:11:44;94191.78;;;13.71;57.82
30935;BME280;51033;42.648;23.292;2023-05-20T00:14:10;94192.97;;;13.83;57.30
30935;BME280;51033;42.648;23.292;2023-05-20T00:16:35;94181.88;;;13.72;57.14
30935;BME280;51033;42.648;23.292;2023-05-20T00:19:01;94185.22;;;13.60;57.47
30935;BME280;51033;42.648;23.292;2023-05-20T00:21:26;94179.91;;;13.52;58.23
30935;BME280;51033;42.648;23.292;2023-05-20T00:23:52;94188.03;;;13.55;58.34
30935;BME280;51033;42.648;23.292;2023-05-20T00:26:17;94181.00;;;13.51;58.29
30935;BME280;51033;42.648;23.292;2023-05-20T00:28:43;94169.56;;;13.42;58.29
30935;BME280;51033;42.648;23.292;2023-05-20T00:31:08;94188.88;;;13.47;58.02
30935;BME280;51033;42.648;23.292;2023-05-20T00:33:35;94187.97;;;13.43;58.37
30935;BME280;51033;42.648;23.292;2023-05-20T00:36:00;94177.94;;;13.31;58.61
30935;BME280;51033;42.648;23.292;2023-05-20T00:38:26;94155.53;;;13.24;58.74
30935;BME280;51033;42.648;23.292;2023-05-20T00:40:51;94169.31;;;13.35;58.40
30935;BME280;51033;42.648;23.292;2023-05-20T00:43:17;94157.53;;;13.27;58.82
30935;BME280;51033;42.648;23.292;2023-05-20T00:45:45;94152.19;;;13.27;58.76
30935;BME280;51033;42.648;23.292;2023-05-20T00:48:10;94145.03;;;13.19;58.97
30935;BME280;51033;42.648;23.292;2023-05-20T00:50:36;94145.81;;;13.19;59.13
30935;BME280;51033;42.648;23.292;2023-05-20T00:53:02;94157.91;;;13.17;59.24
30935;BME280;51033;42.648;23.292;2023-05-20T00:55:27;94144.75;;;13.03;59.76
30935;BME280;51033;42.648;23.292;2023-05-20T00:57:53;94131.41;;;13.03;59.52
30935;BME280;51033;42.648;23.292;2023-05-20T01:00:19;94149.09;;;13.16;59.57
30935;BME280;51033;42.648;23.292;2023-05-20T01:02:44;94151.75;;;13.25;59.19
30935;BME280;51033;42.648;23.292;2023-05-20T01:05:09;94144.84;;;13.24;59.36
30935;BME280;51033;42.648;23.292;2023-05-20T01:07:35;94144.28;;;13.39;58.88
30935;BME280;51033;42.648;23.292;2023-05-20T01:10:01;94147.78;;;13.31;59.14
30935;BME280;51033;42.648;23.292;2023-05-20T01:12:28;94148.44;;;13.28;59.25
30935;BME280;51033;42.648;23.292;2023-05-20T01:15:05;94150.63;;;13.26;59.80
30935;BME280;51033;42.648;23.292;2023-05-20T01:17:32;94135.38;;;13.26;59.42
30935;BME280;51033;42.648;23.292;2023-05-20T01:19:58;94155.47;;;13.32;59.22
30935;BME280;51033;42.648;23.292;2023-05-20T01:22:28;94157.38;;;13.32;59.26
30935;BME280;51033;42.648;23.292;2023-05-20T01:24:54;94160.69;;;13.29;58.98
30935;BME280;51033;42.648;23.292;2023-05-20T01:27:21;94153.16;;;13.22;59.52
30935;BME280;51033;42.648;23.292;2023-05-20T01:29:49;94161.50;;;13.21;59.54
30935;BME280;51033;42.648;23.292;2023-05-20T01:32:35;94175.00;;;13.16;59.78
30935;BME280;51033;42.648;23.292;2023-05-20T01:35:01;94163.72;;;13.19;59.92
30935;BME280;51033;42.648;23.292;2023-05-20T01:37:29;94148.34;;;13.07;60.11
30935;BME280;51033;42.648;23.292;2023-05-20T01:39:56;94155.53;;;13.24;59.68
30935;BME280;51033;42.648;23.292;2023-05-20T01:42:23;94148.78;;;13.18;59.55
30935;BME280;51033;42.648;23.292;2023-05-20T01:44:50;94148.66;;;13.14;59.46
30935;BME280;51033;42.648;23.292;2023-05-20T01:47:15;94148.97;;;13.13;59.77
30935;BME280;51033;42.648;23.292;2023-05-20T01:49:41;94144.84;;;13.15;59.27
30935;BME280;51033;42.648;23.292;2023-05-20T01:52:06;94141.09;;;13.16;59.00
30935;BME280;51033;42.648;23.292;2023-05-20T01:54:31;94136.53;;;13.17;59.44
30935;BME280;51033;42.648;23.292;2023-05-20T01:56:57;94146.47;;;13.08;59.89
30935;BME280;51033;42.648;23.292;2023-05-20T01:59:22;94142.56;;;13.05;60.19
30935;BME280;51033;42.648;23.292;2023-05-20T02:01:48;94137.06;;;13.02;59.61
30935;BME280;51033;42.648;23.292;2023-05-20T02:04:13;94146.81;;;12.98;60.05
30935;BME280;51033;42.648;23.292;2023-05-20T02:06:38;94146.03;;;12.97;60.20
30935;BME280;51033;42.648;23.292;2023-05-20T02:09:04;94136.63;;;13.00;59.79
30935;BME280;51033;42.648;23.292;2023-05-20T02:11:29;94140.03;;;13.09;59.90
30935;BME280;51033;42.648;23.292;2023-05-20T02:13:55;94127.03;;;12.99;59.86
30935;BME280;51033;42.648;23.292;2023-05-20T02:16:20;94143.19;;;13.02;59.88
30935;BME280;51033;42.648;23.292;2023-05-20T02:18:45;94140.81;;;13.01;60.23
30935;BME280;51033;42.648;23.292;2023-05-20T02:21:11;94139.09;;;13.05;59.69
30935;BME280;51033;42.648;23.292;2023-05-20T02:23:36;94137.66;;;13.07;59.85
30935;BME280;51033;42.648;23.292;2023-05-20T02:26:01;94146.16;;;13.01;59.69
30935;BME280;51033;42.648;23.292;2023-05-20T02:28:29;94130.97;;;12.93;59.85
30935;BME280;51033;42.648;23.292;2023-05-20T02:30:54;94136.50;;;12.79;60.27
30935;BME280;51033;42.648;23.292;2023-05-20T02:33:19;94133.03;;;12.87;60.44
30935;BME280;51033;42.648;23.292;2023-05-20T02:35:45;94130.53;;;12.91;60.10
30935;BME280;51033;42.648;23.292;2023-05-20T02:38:11;94140.72;;;12.88;60.29
30935;BME280;51033;42.648;23.292;2023-05-20T02:40:37;94124.88;;;12.83;60.54
30935;BME280;51033;42.648;23.292;2023-05-20T02:43:05;94123.66;;;12.72;60.81
30935;BME280;51033;42.648;23.292;2023-05-20T02:45:30;94122.72;;;12.68;60.56
30935;BME280;51033;42.648;23.292;2023-05-20T02:47:55;94130.25;;;12.75;60.84
30935;BME280;51033;42.648;23.292;2023-05-20T02:50:21;94135.78;;;12.61;60.90
30935;BME280;51033;42.648;23.292;2023-05-20T02:52:46;94126.66;;;12.62;60.43
30935;BME280;51033;42.648;23.292;2023-05-20T02:55:13;94135.41;;;12.71;60.51
30935;BME280;51033;42.648;23.292;2023-05-20T02:57:39;94129.19;;;12.50;61.20
30935;BME280;51033;42.648;23.292;2023-05-20T03:00:05;94120.53;;;12.53;60.82
30935;BME280;51033;42.648;23.292;2023-05-20T03:02:32;94136.72;;;12.65;60.80
30935;BME280;51033;42.648;23.292;2023-05-20T03:04:58;94137.31;;;12.62;60.81
30935;BME280;51033;42.648;23.292;2023-05-20T03:07:23;94146.88;;;12.72;60.48
30935;BME280;51033;42.648;23.292;2023-05-20T03:09:49;94127.91;;;12.56;60.55
30935;BME280;51033;42.648;23.292;2023-05-20T03:12:14;94144.72;;;12.65;60.65
30935;BME280;51033;42.648;23.292;2023-05-20T03:14:40;94146.13;;;12.63;60.92
30935;BME280;51033;42.648;23.292;2023-05-20T03:17:05;94150.66;;;12.62;60.79
30935;BME280;51033;42.648;23.292;2023-05-20T03:19:30;94148.47;;;12.64;60.90
30935;BME280;51033;42.648;23.292;2023-05-20T03:21:56;94153.03;;;12.64;60.95
30935;BME280;51033;42.648;23.292;2023-05-20T03:24:22;94157.13;;;12.61;60.99
30935;BME280;51033;42.648;23.292;2023-05-20T03:26:48;94153.66;;;12.69;60.79
30935;BME280;51033;42.648;23.292;2023-05-20T03:29:13;94144.88;;;12.60;60.79
30935;BME280;51033;42.648;23.292;2023-05-20T03:31:39;94084.53;;;12.21;60.62
30935;BME280;51033;42.648;23.292;2023-05-20T03:34:04;94145.97;;;12.68;60.90
30935;BME280;51033;42.648;23.292;2023-05-20T03:36:30;94159.78;;;12.70;61.24
30935;BME280;51033;42.648;23.292;2023-05-20T03:38:56;94162.09;;;12.71;61.33
30935;BME280;51033;42.648;23.292;2023-05-20T03:41:22;94165.09;;;12.78;61.64
30935;BME280;51033;42.648;23.292;2023-05-20T03:43:47;94148.97;;;12.66;61.81
30935;BME280;51033;42.648;23.292;2023-05-20T03:46:12;94170.25;;;12.83;61.96
30935;BME280;51033;42.648;23.292;2023-05-20T03:48:38;94169.59;;;12.86;61.87
30935;BME280;51033;42.648;23.292;2023-05-20T03:51:03;94170.56;;;12.91;62.20
30935;BME280;51033;42.648;23.292;2023-05-20T03:53:28;94157.53;;;12.89;62.41
30935;BME280;51033;42.648;23.292;2023-05-20T03:55:54;94151.41;;;12.88;62.48
30935;BME280;51033;42.648;23.292;2023-05-20T03:58:19;94171.59;;;13.07;62.86
30935;BME280;51033;42.648;23.292;2023-05-20T04:00:45;94173.91;;;13.17;63.20
30935;BME280;51033;42.648;23.292;2023-05-20T04:03:11;94157.28;;;13.11;63.07
30935;BME280;51033;42.648;23.292;2023-05-20T04:05:37;94168.41;;;13.22;63.78
30935;BME280;51033;42.648;23.292;2023-05-20T04:08:03;94138.75;;;13.15;63.51
30935;BME280;51033;42.648;23.292;2023-05-20T04:10:29;94173.81;;;13.43;63.10
30935;BME280;51033;42.648;23.292;2023-05-20T04:12:56;94165.81;;;13.43;63.38
30935;BME280;51033;42.648;23.292;2023-05-20T04:15:22;94177.34;;;13.55;63.51
30935;BME280;51033;42.648;23.292;2023-05-20T04:17:54;94178.59;;;13.66;63.34
30935;BME280;51033;42.648;23.292;2023-05-20T04:20:19;94183.38;;;13.82;63.99
30935;BME280;51033;42.648;23.292;2023-05-20T04:22:45;94175.19;;;13.87;63.69
30935;BME280;51033;42.648;23.292;2023-05-20T04:25:11;94181.34;;;14.08;62.21
30935;BME280;51033;42.648;23.292;2023-05-20T04:27:36;94191.19;;;14.16;62.27
30935;BME280;51033;42.648;23.292;2023-05-20T04:30:03;94191.97;;;14.16;62.64
30935;BME280;51033;42.648;23.292;2023-05-20T04:32:29;94186.53;;;14.25;62.14
30935;BME280;51033;42.648;23.292;2023-05-20T04:34:54;94184.34;;;14.27;60.99
30935;BME280;51033;42.648;23.292;2023-05-20T04:37:20;94158.97;;;14.12;60.48
30935;BME280;51033;42.648;23.292;2023-05-20T04:39:46;94187.00;;;14.27;60.42
30935;BME280;51033;42.648;23.292;2023-05-20T04:42:14;94189.53;;;14.44;58.95
30935;BME280;51033;42.648;23.292;2023-05-20T04:44:41;94184.72;;;14.58;59.21
30935;BME280;51033;42.648;23.292;2023-05-20T04:47:10;94189.38;;;14.82;58.51
30935;BME280;51033;42.648;23.292;2023-05-20T04:49:36;94189.38;;;14.82;57.37
30935;BME280;51033;42.648;23.292;2023-05-20T04:52:05;94196.41;;;14.87;58.29
30935;BME280;51033;42.648;23.292;2023-05-20T04:54:31;94207.00;;;14.83;58.33
30935;BME280;51033;42.648;23.292;2023-05-20T04:56:57;94184.38;;;14.93;56.45
30935;BME280;51033;42.648;23.292;2023-05-20T04:59:22;94190.22;;;15.07;55.71
30935;BME280;51033;42.648;23.292;2023-05-20T05:01:48;94193.16;;;15.14;56.69
30935;BME280;51033;42.648;23.292;2023-05-20T05:04:13;94189.22;;;14.99;57.80
30935;BME280;51033;42.648;23.292;2023-05-20T05:06:39;94200.16;;;15.07;57.68
30935;BME280;51033;42.648;23.292;2023-05-20T05:09:04;94196.19;;;15.25;56.79
30935;BME280;51033;42.648;23.292;2023-05-20T05:11:30;94176.84;;;15.19;57.35
30935;BME280;51033;42.648;23.292;2023-05-20T05:13:55;94188.25;;;15.28;57.91
30935;BME280;51033;42.648;23.292;2023-05-20T05:16:21;94192.97;;;15.43;57.52
30935;BME280;51033;42.648;23.292;2023-05-20T05:18:46;94198.28;;;15.31;59.30
30935;BME280;51033;42.648;23.292;2023-05-20T05:21:12;94196.97;;;15.37;59.85
30935;BME280;51033;42.648;23.292;2023-05-20T05:23:37;94194.25;;;15.13;60.94
30935;BME280;51033;42.648;23.292;2023-05-20T05:26:03;94203.13;;;14.93;60.67
30935;BME280;51033;42.648;23.292;2023-05-20T05:28:29;94194.44;;;14.96;60.35
30935;BME280;51033;42.648;23.292;2023-05-20T05:30:54;94197.63;;;15.22;58.40
30935;BME280;51033;42.648;23.292;2023-05-20T05:33:23;94174.84;;;15.28;57.75
30935;BME280;51033;42.648;23.292;2023-05-20T05:35:49;94180.72;;;14.97;59.71
30935;BME280;51033;42.648;23.292;2023-05-20T05:38:15;94173.31;;;15.39;56.62
30935;BME280;51033;42.648;23.292;2023-05-20T05:40:41;94175.44;;;15.70;56.19
30935;BME280;51033;42.648;23.292;2023-05-20T05:43:06;94171.09;;;15.54;57.96
30935;BME280;51033;42.648;23.292;2023-05-20T05:45:32;94171.09;;;15.66;57.95
30935;BME280;51033;42.648;23.292;2023-05-20T05:47:57;94177.47;;;15.49;58.06
30935;BME280;51033;42.648;23.292;2023-05-20T05:50:22;94178.22;;;15.86;57.57
30935;BME280;51033;42.648;23.292;2023-05-20T05:52:48;94174.19;;;15.31;58.55
30935;BME280;51033;42.648;23.292;2023-05-20T05:55:13;94174.41;;;15.14;60.01
30935;BME280;51033;42.648;23.292;2023-05-20T05:57:39;94130.88;;;15.41;59.25
30935;BME280;51033;42.648;23.292;2023-05-20T06:00:05;94179.59;;;15.68;57.09
30935;BME280;51033;42.648;23.292;2023-05-20T06:02:30;94178.47;;;15.81;57.77
30935;BME280;51033;42.648;23.292;2023-05-20T06:05:03;94182.59;;;16.03;55.95
30935;BME280;51033;42.648;23.292;2023-05-20T06:07:29;94172.19;;;16.01;57.29
30935;BME280;51033;42.648;23.292;2023-05-20T06:09:54;94169.00;;;16.23;54.08
30935;BME280;51033;42.648;23.292;2023-05-20T06:12:19;94169.91;;;16.27;55.69
30935;BME280;51033;42.648;23.292;2023-05-20T06:14:46;94164.91;;;16.54;55.54
30935;BME280;51033;42.648;23.292;2023-05-20T06:17:12;94164.31;;;16.60;53.84
30935;BME280;51033;42.648;23.292;2023-05-20T06:19:37;94167.19;;;16.95;54.35
30935;BME280;51033;42.648;23.292;2023-05-20T06:22:03;94170.28;;;16.97;52.59
30935;BME280;51033;42.648;23.292;2023-05-20T06:24:28;94163.44;;;16.84;52.66
30935;BME280;51033;42.648;23.292;2023-05-20T06:26:53;94154.13;;;16.66;53.31
30935;BME280;51033;42.648;23.292;2023-05-20T06:29:19;94154.97;;;16.98;54.18
30935;BME280;51033;42.648;23.292;2023-05-20T06:31:45;94152.16;;;16.11;54.55
30935;BME280;51033;42.648;23.292;2023-05-20T06:34:10;94148.59;;;16.07;54.51
30935;BME280;51033;42.648;23.292;2023-05-20T06:36:35;94144.88;;;16.11;52.47
30935;BME280;51033;42.648;23.292;2023-05-20T06:39:01;94148.13;;;16.57;50.55
30935;BME280;51033;42.648;23.292;2023-05-20T06:41:26;94142.28;;;16.67;48.09
30935;BME280;51033;42.648;23.292;2023-05-20T06:43:52;94132.06;;;16.88;48.56
30935;BME280;51033;42.648;23.292;2023-05-20T06:46:17;94139.41;;;17.35;48.68
30935;BME280;51033;42.648;23.292;2023-05-20T06:48:42;94116.53;;;17.25;47.42
30935;BME280;51033;42.648;23.292;2023-05-20T06:51:08;94120.56;;;17.03;47.08
30935;BME280;51033;42.648;23.292;2023-05-20T06:53:34;94130.59;;;17.06;46.98
30935;BME280;51033;42.648;23.292;2023-05-20T06:55:59;94134.13;;;16.79;45.77
30935;BME280;51033;42.648;23.292;2023-05-20T06:58:25;94140.69;;;16.66;47.80
30935;BME280;51033;42.648;23.292;2023-05-20T07:00:50;94139.91;;;16.65;48.70
30935;BME280;51033;42.648;23.292;2023-05-20T07:03:16;94149.09;;;16.64;48.81
30935;BME280;51033;42.648;23.292;2023-05-20T07:05:41;94139.13;;;16.65;48.98
30935;BME280;51033;42.648;23.292;2023-05-20T07:08:07;94138.50;;;16.99;48.28
30935;BME280;51033;42.648;23.292;2023-05-20T07:10:33;94139.13;;;16.65;47.30
30935;BME280;51033;42.648;23.292;2023-05-20T07:12:58;94132.69;;;16.97;48.95
30935;BME280;51033;42.648;23.292;2023-05-20T07:15:24;94138.06;;;17.13;47.16
30935;BME280;51033;42.648;23.292;2023-05-20T07:17:49;94143.31;;;16.78;46.11
30935;BME280;51033;42.648;23.292;2023-05-20T07:20:14;94149.38;;;16.75;46.15
30935;BME280;51033;42.648;23.292;2023-05-20T07:22:40;94138.41;;;17.11;46.53
30935;BME280;51033;42.648;23.292;2023-05-20T07:25:06;94135.63;;;16.49;46.68
30935;BME280;51033;42.648;23.292;2023-05-20T07:27:31;94121.94;;;16.54;47.02
30935;BME280;51033;42.648;23.292;2023-05-20T07:29:57;94122.16;;;16.61;47.56
30935;BME280;51033;42.648;23.292;2023-05-20T07:32:22;94129.63;;;16.83;47.80
30935;BME280;51033;42.648;23.292;2023-05-20T07:34:47;94131.03;;;17.08;47.50
30935;BME280;51033;42.648;23.292;2023-05-20T07:37:13;94126.97;;;16.99;46.96
30935;BME280;51033;42.648;23.292;2023-05-20T07:39:39;94131.69;;;17.17;46.31
30935;BME280;51033;42.648;23.292;2023-05-20T07:42:04;94142.03;;;17.15;45.90
30935;BME280;51033;42.648;23.292;2023-05-20T07:44:30;94144.69;;;17.31;46.03
30935;BME280;51033;42.648;23.292;2023-05-20T07:46:55;94131.03;;;17.08;46.44
30935;BME280;51033;42.648;23.292;2023-05-20T07:49:20;94131.44;;;17.23;46.40
30935;BME280;51033;42.648;23.292;2023-05-20T07:51:46;94135.69;;;17.39;44.62
30935;BME280;51033;42.648;23.292;2023-05-20T07:54:11;94132.09;;;17.67;44.99
30935;BME280;51033;42.648;23.292;2023-05-20T07:56:37;94143.56;;;17.16;46.35
30935;BME280;51033;42.648;23.292;2023-05-20T07:59:02;94135.75;;;17.43;46.04
30935;BME280;51033;42.648;23.292;2023-05-20T08:01:28;94133.94;;;17.31;45.79
30935;BME280;51033;42.648;23.292;2023-05-20T08:03:54;94127.34;;;17.29;45.49
30935;BME280;51033;42.648;23.292;2023-05-20T08:06:20;94137.66;;;17.27;46.05
30935;BME280;51033;42.648;23.292;2023-05-20T08:08:45;94116.81;;;16.92;45.73
30935;BME280;51033;42.648;23.292;2023-05-20T08:11:11;94116.50;;;17.09;46.21
30935;BME280;51033;42.648;23.292;2023-05-20T08:13:37;94119.50;;;17.08;46.84
30935;BME280;51033;42.648;23.292;2023-05-20T08:16:03;94127.25;;;17.09;46.81
30935;BME280;51033;42.648;23.292;2023-05-20T08:18:30;94132.53;;;17.22;46.67
30935;BME280;51033;42.648;23.292;2023-05-20T08:20:56;94130.69;;;16.94;46.32
30935;BME280;51033;42.648;23.292;2023-05-20T08:23:23;94109.47;;;17.05;46.31
30935;BME280;51033;42.648;23.292;2023-05-20T08:25:48;94122.59;;;17.38;46.61
30935;BME280;51033;42.648;23.292;2023-05-20T08:28:13;94109.47;;;17.36;46.94
30935;BME280;51033;42.648;23.292;2023-05-20T08:30:41;94123.81;;;17.40;46.74
30935;BME280;51033;42.648;23.292;2023-05-20T08:33:07;94119.44;;;17.36;46.15
30935;BME280;51033;42.648;23.292;2023-05-20T08:35:32;94105.06;;;17.44;47.59
30935;BME280;51033;42.648;23.292;2023-05-20T08:37:57;94106.00;;;17.51;46.69
30935;BME280;51033;42.648;23.292;2023-05-20T08:40:23;94106.97;;;17.43;44.85
30935;BME280;51033;42.648;23.292;2023-05-20T08:42:50;94120.44;;;17.94;46.07
30935;BME280;51033;42.648;23.292;2023-05-20T08:45:18;94117.00;;;17.62;44.46
30935;BME280;51033;42.648;23.292;2023-05-20T08:47:44;94120.50;;;17.47;45.51
30935;BME280;51033;42.648;23.292;2023-05-20T08:50:11;94107.13;;;17.85;45.69
30935;BME280;51033;42.648;23.292;2023-05-20T08:52:42;94115.47;;;17.96;46.36
30935;BME280;51033;42.648;23.292;2023-05-20T08:55:13;94122.16;;;17.86;45.98
30935;BME280;51033;42.648;23.292;2023-05-20T08:57:39;94109.91;;;17.54;45.32
30935;BME280;51033;42.648;23.292;2023-05-20T09:00:07;94107.94;;;17.70;44.43
30935;BME280;51033;42.648;23.292;2023-05-20T09:02:38;94111.13;;;17.41;45.87
30935;BME280;51033;42.648;23.292;2023-05-20T09:05:04;94119.81;;;17.18;45.99
30935;BME280;51033;42.648;23.292;2023-05-20T09:07:30;94117.13;;;17.34;47.46
30935;BME280;51033;42.648;23.292;2023-05-20T09:09:56;94102.31;;;17.25;46.13
30935;BME280;51033;42.648;23.292;2023-05-20T09:12:22;94096.81;;;17.21;46.00
30935;BME280;51033;42.648;23.292;2023-05-20T09:14:47;94103.31;;;17.04;44.87
30935;BME280;51033;42.648;23.292;2023-05-20T09:17:13;94093.38;;;17.21;46.09
30935;BME280;51033;42.648;23.292;2023-05-20T09:19:38;94086.53;;;17.23;47.03
30935;BME280;51033;42.648;23.292;2023-05-20T09:22:04;94101.19;;;17.26;44.80
30935;BME280;51033;42.648;23.292;2023-05-20T09:24:30;94104.81;;;17.17;45.38
30935;BME280;51033;42.648;23.292;2023-05-20T09:26:55;94086.06;;;17.05;46.44
30935;BME280;51033;42.648;23.292;2023-05-20T09:29:23;94086.44;;;17.35;45.05
30935;BME280;51033;42.648;23.292;2023-05-20T09:31:49;94103.13;;;17.13;46.55
30935;BME280;51033;42.648;23.292;2023-05-20T09:34:15;94095.41;;;17.11;47.21
30935;BME280;51033;42.648;23.292;2023-05-20T09:36:42;94090.84;;;17.43;46.30
30935;BME280;51033;42.648;23.292;2023-05-20T09:39:12;94090.00;;;17.74;46.89
30935;BME280;51033;42.648;23.292;2023-05-20T09:41:45;94076.13;;;17.72;46.31
30935;BME280;51033;42.648;23.292;2023-05-20T09:44:13;94091.44;;;17.87;46.02
30935;BME280;51033;42.648;23.292;2023-05-20T09:46:40;94092.53;;;17.67;46.29
30935;BME280;51033;42.648;23.292;2023-05-20T09:49:07;94074.72;;;17.28;46.03
30935;BME280;51033;42.648;23.292;2023-05-20T09:51:32;94083.13;;;17.26;45.99
30935;BME280;51033;42.648;23.292;2023-05-20T09:53:59;94088.75;;;16.90;46.96
30935;BME280;51033;42.648;23.292;2023-05-20T09:56:28;94073.91;;;17.11;46.24
30935;BME280;51033;42.648;23.292;2023-05-20T09:58:56;94064.84;;;17.00;46.00
30935;BME280;51033;42.648;23.292;2023-05-20T10:01:23;94066.22;;;16.94;47.51
30935;BME280;51033;42.648;23.292;2023-05-20T10:03:50;94062.94;;;17.16;47.02
30935;BME280;51033;42.648;23.292;2023-05-20T10:17:21;94055.03;;;17.74;43.47
30935;BME280;51033;42.648;23.292;2023-05-20T10:19:48;94037.91;;;17.47;46.15
30935;BME280;51033;42.648;23.292;2023-05-20T10:22:24;94029.47;;;17.65;46.14
30935;BME280;51033;42.648;23.292;2023-05-20T10:24:57;94047.25;;;17.69;46.40
30935;BME280;51033;42.648;23.292;2023-05-20T10:27:23;94041.34;;;17.64;46.26
30935;BME280;51033;42.648;23.292;2023-05-20T10:32:30;94025.00;;;18.07;44.74
30935;BME280;51033;42.648;23.292;2023-05-20T10:35:08;94022.06;;;18.16;45.24
30935;BME280;51033;42.648;23.292;2023-05-20T10:37:42;94032.50;;;17.63;44.04
30935;BME280;51033;42.648;23.292;2023-05-20T10:40:11;94020.25;;;17.66;43.93
30935;BME280;51033;42.648;23.292;2023-05-20T10:42:37;94030.06;;;17.39;42.78
30935;BME280;51033;42.648;23.292;2023-05-20T10:45:03;94019.94;;;17.16;42.21
30935;BME280;51033;42.648;23.292;2023-05-20T10:47:29;94018.47;;;17.54;43.75
30935;BME280;51033;42.648;23.292;2023-05-20T10:49:55;94012.94;;;17.47;43.59
30935;BME280;51033;42.648;23.292;2023-05-20T10:52:23;94022.91;;;17.46;43.59
30935;BME280;51033;42.648;23.292;2023-05-20T10:54:56;94011.59;;;17.56;43.00
30935;BME280;51033;42.648;23.292;2023-05-20T10:57:23;94010.66;;;17.30;43.04
30935;BME280;51033;42.648;23.292;2023-05-20T10:59:49;94010.13;;;17.08;42.69
30935;BME280;51033;42.648;23.292;2023-05-20T11:02:16;93987.69;;;17.16;42.22
30935;BME280;51033;42.648;23.292;2023-05-20T11:04:42;94001.63;;;17.57;44.04
30935;BME280;51033;42.648;23.292;2023-05-20T11:07:08;94002.66;;;17.33;42.44
30935;BME280;51033;42.648;23.292;2023-05-20T11:09:34;94012.88;;;17.43;43.46
30935;BME280;51033;42.648;23.292;2023-05-20T11:11:59;94003.56;;;17.41;44.34
30935;BME280;51033;42.648;23.292;2023-05-20T11:14:29;93999.38;;;17.59;44.09
30935;BME280;51033;42.648;23.292;2023-05-20T11:16:58;93986.91;;;17.70;42.89
30935;BME280;51033;42.648;23.292;2023-05-20T11:19:25;93958.47;;;17.50;42.71
30935;BME280;51033;42.648;23.292;2023-05-20T11:21:51;93982.75;;;17.53;42.24
30935;BME280;51033;42.648;23.292;2023-05-20T11:24:27;93956.06;;;17.64;42.86
30935;BME280;51033;42.648;23.292;2023-05-20T11:26:54;93975.25;;;17.82;42.31
30935;BME280;51033;42.648;23.292;2023-05-20T11:29:20;93967.53;;;17.80;43.29
30935;BME280;51033;42.648;23.292;2023-05-20T11:31:47;93974.63;;;17.88;44.16
30935;BME280;51033;42.648;23.292;2023-05-20T11:34:14;93948.84;;;17.49;44.81
30935;BME280;51033;42.648;23.292;2023-05-20T11:36:42;93971.13;;;17.30;45.01
30935;BME280;51033;42.648;23.292;2023-05-20T11:39:11;93964.25;;;17.33;44.77
30935;BME280;51033;42.648;23.292;2023-05-20T11:41:38;93936.00;;;17.07;44.77
30935;BME280;51033;42.648;23.292;2023-05-20T11:44:03;93955.88;;;17.18;44.73
30935;BME280;51033;42.648;23.292;2023-05-20T11:46:29;93958.34;;;17.11;45.10
30935;BME280;51033;42.648;23.292;2023-05-20T11:48:56;93963.88;;;17.15;45.69
30935;BME280;51033;42.648;23.292;2023-05-20T11:51:28;93963.66;;;17.24;44.48
30935;BME280;51033;42.648;23.292;2023-05-20T11:54:02;93959.44;;;17.42;45.72
30935;BME280;51033;42.648;23.292;2023-05-20T11:56:37;93948.69;;;17.80;44.14
30935;BME280;51033;42.648;23.292;2023-05-20T11:59:04;93947.13;;;17.41;44.42
30935;BME280;51033;42.648;23.292;2023-05-20T12:01:32;93943.59;;;17.37;45.45
30935;BME280;51033;42.648;23.292;2023-05-20T12:04:08;93941.81;;;17.25;44.69
30935;BME280;51033;42.648;23.292;2023-05-20T12:06:34;93935.88;;;17.00;45.32
30935;BME280;51033;42.648;23.292;2023-05-20T12:09:02;93932.28;;;17.12;45.17
30935;BME280;51033;42.648;23.292;2023-05-20T12:11:40;93931.44;;;17.43;45.64
30935;BME280;51033;42.648;23.292;2023-05-20T12:14:06;93928.25;;;17.37;45.57
30935;BME280;51033;42.648;23.292;2023-05-20T12:16:36;93937.06;;;17.18;45.22
30935;BME280;51033;42.648;23.292;2023-05-20T12:19:01;93934.22;;;17.31;45.48
30935;BME280;51033;42.648;23.292;2023-05-20T12:21:28;93931.41;;;17.24;45.31
30935;BME280;51033;42.648;23.292;2023-05-20T12:23:54;93895.34;;;16.74;46.41
30935;BME280;51033;42.648;23.292;2023-05-20T12:26:23;93942.28;;;17.31;45.77
30935;BME280;51033;42.648;23.292;2023-05-20T12:28:51;93953.56;;;16.86;46.75
30935;BME280;51033;42.648;23.292;2023-05-20T12:31:16;93952.91;;;16.42;47.49
30935;BME280;51033;42.648;23.292;2023-05-20T12:33:42;93994.00;;;16.02;48.04
30935;BME280;51033;42.648;23.292;2023-05-20T12:36:07;94000.34;;;15.30;48.11
30935;BME280;51033;42.648;23.292;2023-05-20T12:38:33;93995.28;;;15.40;48.22
30935;BME280;51033;42.648;23.292;2023-05-20T12:40:58;93997.75;;;15.58;48.80
30935;BME280;51033;42.648;23.292;2023-05-20T12:43:24;93985.81;;;15.31;49.73
30935;BME280;51033;42.648;23.292;2023-05-20T12:45:50;94003.78;;;15.42;49.86
30935;BME280;51033;42.648;23.292;2023-05-20T12:48:16;94005.34;;;15.43;50.53
30935;BME280;51033;42.648;23.292;2023-05-20T12:50:44;93989.91;;;15.65;49.30
30935;BME280;51033;42.648;23.292;2023-05-20T12:53:09;93991.91;;;15.68;48.84
30935;BME280;51033;42.648;23.292;2023-05-20T12:55:35;93980.09;;;15.57;48.32
30935;BME280;51033;42.648;23.292;2023-05-20T12:58:00;93980.59;;;15.34;49.29
30935;BME280;51033;42.648;23.292;2023-05-20T13:00:26;93985.31;;;15.25;49.24